Time;durP1;ratioP1;P1;durP2;ratioP2;P2;SDS_P1;SDS_P2;PMS_P1;PMS_P2;Temp;Humidity;BMP_temperature;BMP_pressure;BME280_temperature;BME280_humidity;BME280_pressure;Samples;Min_cycle;Max_cycle;Signal;HPM_P1;HPM_P2
2022/05/10 00:00:08;;;;;;;6.38;3.83;;;13.20;99.90;;;;;;5114417;27;20043;-78
2022/05/10 00:02:34;;;;;;;8.77;3.30;;;13.20;99.90;;;;;;5098063;27;20035;-76
2022/05/10 00:05:00;;;;;;;7.82;3.65;;;13.20;99.90;;;;;;5114599;27;20038;-77
2022/05/10 00:07:30;;;;;;;7.38;4.07;;;13.20;99.90;;;;;;5114689;27;20047;-77
2022/05/10 00:09:56;;;;;;;11.82;3.58;;;13.10;99.90;;;;;;5114144;27;20081;-77
2022/05/10 00:12:21;;;;;;;6.22;3.30;;;13.10;99.90;;;;;;5114400;27;20070;-78
2022/05/10 00:14:47;;;;;;;8.05;3.92;;;13.00;99.90;;;;;;5114754;27;20054;-78
2022/05/10 00:17:23;;;;;;;9.02;3.92;;;13.00;99.90;;;;;;5114519;27;20043;-78
2022/05/10 00:19:48;;;;;;;7.00;3.60;;;13.00;99.90;;;;;;5114266;27;20046;-78
2022/05/10 00:22:14;;;;;;;8.77;3.50;;;12.90;99.90;;;;;;5097518;27;20043;-78
2022/05/10 00:24:40;;;;;;;10.52;3.97;;;12.90;99.90;;;;;;5114186;27;20039;-78
2022/05/10 00:27:05;;;;;;;11.82;3.67;;;12.80;99.90;;;;;;5114296;27;20349;-78
2022/05/10 00:29:31;;;;;;;8.50;3.88;;;12.80;99.90;;;;;;5132066;27;20477;-78
2022/05/10 00:31:56;;;;;;;9.57;3.80;;;12.80;99.90;;;;;;5114405;27;20076;-78
2022/05/10 00:34:23;;;;;;;10.32;4.25;;;12.70;99.90;;;;;;5114076;27;20067;-78
2022/05/10 00:36:48;;;;;;;9.90;3.97;;;12.70;99.90;;;;;;5132352;27;20504;-77
2022/05/10 00:39:14;;;;;;;7.22;4.28;;;12.70;99.90;;;;;;5113956;27;20135;-77
2022/05/10 00:41:51;;;;;;;8.35;4.28;;;12.60;99.90;;;;;;5113577;27;20391;-77
2022/05/10 00:44:22;;;;;;;11.02;4.40;;;12.60;99.90;;;;;;5113900;27;20035;-78
2022/05/10 00:47:02;;;;;;;8.00;4.38;;;12.60;99.90;;;;;;5114130;27;20047;-78
2022/05/10 00:49:34;;;;;;;8.82;4.03;;;12.60;99.90;;;;;;5096877;27;20549;-78
2022/05/10 00:52:10;;;;;;;10.30;4.43;;;12.50;99.90;;;;;;5114061;27;20118;-78
2022/05/10 00:54:50;;;;;;;8.48;4.47;;;12.60;99.90;;;;;;5096954;27;20111;-77
2022/05/10 00:57:36;;;;;;;8.00;4.47;;;12.60;99.90;;;;;;5113453;27;20039;-77
2022/05/10 01:00:12;;;;;;;16.70;5.22;;;12.60;99.90;;;;;;5112258;27;20116;-78
2022/05/10 01:02:42;;;;;;;12.65;5.13;;;12.60;99.90;;;;;;5113670;27;20055;-78
2022/05/10 01:05:35;;;;;;;12.77;4.85;;;12.50;99.90;;;;;;5096590;27;20144;-77
2022/05/10 01:08:21;;;;;;;11.95;4.65;;;12.50;99.90;;;;;;5113461;28;20108;-77
2022/05/10 01:11:00;;;;;;;7.80;3.97;;;12.50;99.90;;;;;;5119943;27;20046;-76
2022/05/10 01:13:49;;;;;;;11.80;4.47;;;12.50;99.90;;;;;;5132499;28;20054;-77
2022/05/10 01:16:20;;;;;;;10.52;4.80;;;12.40;99.90;;;;;;5135578;27;20042;-77
2022/05/10 01:18:47;;;;;;;9.87;4.97;;;12.40;99.90;;;;;;5131770;28;20139;-78
2022/05/10 01:21:39;;;;;;;8.13;4.80;;;12.40;99.90;;;;;;5131386;28;20045;-78
2022/05/10 01:24:17;;;;;;;10.88;5.43;;;12.40;99.90;;;;;;5113457;28;20595;-78
2022/05/10 01:27:13;;;;;;;13.98;5.18;;;12.40;99.90;;;;;;5096711;28;20070;-78
2022/05/10 01:30:06;;;;;;;9.40;4.65;;;12.40;99.90;;;;;;5113198;28;20074;-78
2022/05/10 01:35:29;;;;;;;14.15;5.72;;;12.30;99.90;;;;;;5113264;28;20256;-78
2022/05/10 01:38:06;;;;;;;9.73;5.20;;;12.30;99.90;;;;;;5113114;28;20110;-78
2022/05/10 01:40:39;;;;;;;15.18;5.95;;;12.30;99.90;;;;;;5113014;28;20104;-78
2022/05/10 01:43:14;;;;;;;9.43;5.28;;;12.30;99.90;;;;;;5113146;28;20031;-78
2022/05/10 01:45:46;;;;;;;14.02;5.53;;;12.30;99.90;;;;;;5113099;28;20421;-78
2022/05/10 01:48:17;;;;;;;10.25;5.70;;;12.30;99.90;;;;;;5131633;28;20047;-78
2022/05/10 01:50:58;;;;;;;23.80;5.65;;;12.30;99.90;;;;;;5112876;28;20412;-78
2022/05/10 01:53:35;;;;;;;11.63;5.57;;;12.30;99.90;;;;;;5096559;28;20424;-78
2022/05/10 01:56:06;;;;;;;14.10;5.22;;;12.30;99.90;;;;;;5112986;28;20513;-78
2022/05/10 01:58:35;;;;;;;9.40;5.03;;;12.30;99.90;;;;;;5113000;28;20062;-78
2022/05/10 02:01:03;;;;;;;9.35;5.60;;;12.30;99.90;;;;;;5112637;28;20043;-78
2022/05/10 02:03:44;;;;;;;15.48;5.50;;;12.20;99.90;;;;;;5113227;28;20043;-78
2022/05/10 02:06:22;;;;;;;10.70;5.03;;;12.30;99.90;;;;;;5112941;28;20051;-78
2022/05/10 02:09:06;;;;;;;13.88;5.03;;;12.30;99.90;;;;;;5112934;28;20053;-78
2022/05/10 02:11:37;;;;;;;19.13;5.43;;;12.30;99.90;;;;;;5113700;27;20074;-77
2022/05/10 02:14:06;;;;;;;15.18;5.53;;;12.30;99.90;;;;;;5116779;27;20039;-77
2022/05/10 02:16:35;;;;;;;10.52;4.97;;;12.30;99.90;;;;;;5116507;27;20169;-77
2022/05/10 02:19:23;;;;;;;15.55;5.07;;;12.30;99.90;;;;;;5116572;27;20054;-77
2022/05/10 02:21:55;;;;;;;15.20;6.35;;;12.30;99.90;;;;;;5116336;27;20169;-77
2022/05/10 02:24:29;;;;;;;14.48;5.63;;;12.30;99.90;;;;;;5116818;27;20043;-77
2022/05/10 02:27:00;;;;;;;12.27;5.75;;;12.30;99.90;;;;;;5099668;27;20439;-77
2022/05/10 02:29:41;;;;;;;13.27;6.28;;;12.30;99.90;;;;;;5116378;27;20035;-77
2022/05/10 02:34:54;;;;;;;16.98;6.18;;;12.40;99.90;;;;;;5116259;27;20057;-77
2022/05/10 02:37:20;;;;;;;15.75;6.13;;;12.40;99.90;;;;;;5116250;27;20047;-77
2022/05/10 02:39:45;;;;;;;10.95;6.20;;;12.40;99.90;;;;;;5116172;27;20347;-77
2022/05/10 02:42:14;;;;;;;12.63;6.28;;;12.40;99.90;;;;;;5134583;27;20039;-77
2022/05/10 02:44:40;;;;;;;13.15;6.10;;;12.40;99.90;;;;;;5116152;27;20035;-77
2022/05/10 02:47:08;;;;;;;13.90;6.25;;;12.40;99.90;;;;;;5115869;27;20501;-77
2022/05/10 02:49:36;;;;;;;13.00;6.25;;;12.40;99.90;;;;;;5115908;27;20144;-77
2022/05/10 02:52:03;;;;;;;12.52;6.18;;;12.50;99.90;;;;;;5116063;27;20273;-77
2022/05/10 02:54:28;;;;;;;12.85;7.10;;;12.50;99.90;;;;;;5098950;27;20043;-77
2022/05/10 02:56:55;;;;;;;17.15;6.25;;;12.50;99.90;;;;;;5115956;27;20035;-77
2022/05/10 02:59:33;;;;;;;12.25;7.00;;;12.50;99.90;;;;;;5115969;27;20092;-77
2022/05/10 03:02:12;;;;;;;17.63;7.90;;;12.50;99.90;;;;;;5115775;27;20047;-77
2022/05/10 03:04:42;;;;;;;13.75;7.00;;;12.50;99.90;;;;;;5116080;27;20110;-77
2022/05/10 03:07:08;;;;;;;17.73;7.32;;;12.50;99.90;;;;;;5115835;27;20046;-77
2022/05/10 03:09:34;;;;;;;13.32;6.57;;;12.50;99.90;;;;;;5098244;27;20110;-77
2022/05/10 03:12:04;;;;;;;14.02;6.70;;;12.50;99.90;;;;;;5115367;27;20501;-77
2022/05/10 03:14:30;;;;;;;17.73;7.63;;;12.60;99.90;;;;;;5098583;27;20042;-76
2022/05/10 03:16:55;;;;;;;13.60;6.32;;;12.60;99.90;;;;;;5115504;27;20039;-76
2022/05/10 03:19:21;;;;;;;16.02;8.20;;;12.60;99.90;;;;;;5115624;27;20043;-78
2022/05/10 03:21:47;;;;;;;16.83;7.80;;;12.60;99.90;;;;;;5133789;27;20043;-75
2022/05/10 03:24:12;;;;;;;14.77;7.60;;;12.70;99.90;;;;;;5115133;27;20035;-76
2022/05/10 03:26:39;;;;;;;16.77;7.45;;;12.70;99.90;;;;;;5115608;27;20489;-76
2022/05/10 03:29:05;;;;;;;13.15;7.13;;;12.70;99.90;;;;;;5115261;27;20050;-79
2022/05/10 03:31:31;;;;;;;11.90;6.25;;;12.70;99.90;;;;;;5114912;27;20035;-76
2022/05/10 03:36:41;;;;;;;12.95;6.82;;;12.70;99.90;;;;;;5115215;27;20054;-78
2022/05/10 03:39:08;;;;;;;17.65;7.30;;;12.70;99.90;;;;;;5114994;27;20051;-78
2022/05/10 03:41:33;;;;;;;11.27;6.95;;;12.80;99.90;;;;;;5114875;27;20071;-79
2022/05/10 03:43:59;;;;;;;11.90;7.20;;;12.70;99.90;;;;;;5115136;27;20074;-76
2022/05/10 03:46:25;;;;;;;17.45;8.60;;;12.70;99.90;;;;;;5114929;27;20039;-76
2022/05/10 03:48:51;;;;;;;19.92;7.05;;;12.80;99.90;;;;;;5115100;27;20047;-76
2022/05/10 03:51:17;;;;;;;12.23;7.30;;;12.80;99.90;;;;;;5114541;27;20050;-76
2022/05/10 03:53:43;;;;;;;16.88;7.93;;;12.80;99.90;;;;;;5114783;27;20038;-78
2022/05/10 03:56:09;;;;;;;14.32;7.47;;;12.90;99.90;;;;;;5114569;27;20065;-77
2022/05/10 03:58:34;;;;;;;16.52;7.93;;;12.90;99.90;;;;;;5097902;27;20035;-78
2022/05/10 04:01:00;;;;;;;12.38;7.03;;;12.90;99.90;;;;;;5114380;27;20087;-78
2022/05/10 04:03:25;;;;;;;18.13;8.38;;;12.90;99.90;;;;;;5114678;27;20047;-76
2022/05/10 04:05:51;;;;;;;15.82;7.50;;;13.00;99.90;;;;;;5114869;27;20115;-76
2022/05/10 04:08:16;;;;;;;15.23;7.20;;;13.00;99.90;;;;;;5114392;27;20566;-76
2022/05/10 04:10:42;;;;;;;14.43;7.75;;;13.00;99.90;;;;;;5114213;27;20065;-76
2022/05/10 04:13:10;;;;;;;19.10;8.07;;;13.00;99.90;;;;;;5114489;27;20437;-76
2022/05/10 04:15:36;;;;;;;22.23;9.20;;;13.10;99.90;;;;;;5114557;27;20125;-76
2022/05/10 04:18:03;;;;;;;18.80;8.52;;;13.10;99.90;;;;;;5114343;27;20122;-76
2022/05/10 04:20:28;;;;;;;12.55;7.40;;;13.10;99.90;;;;;;5096910;27;20050;-76
2022/05/10 04:22:54;;;;;;;15.60;8.05;;;13.20;99.90;;;;;;5114481;27;20055;-76
2022/05/10 04:25:23;;;;;;;12.73;7.22;;;13.20;99.90;;;;;;5114375;27;20039;-76
2022/05/10 04:27:51;;;;;;;15.48;7.95;;;13.30;99.90;;;;;;5121802;27;20069;-79
2022/05/10 04:30:17;;;;;;;14.68;8.55;;;13.30;99.90;;;;;;5132646;27;20042;-76
2022/05/10 04:32:42;;;;;;;12.73;8.15;;;13.30;99.90;;;;;;5122830;27;20046;-76
2022/05/10 04:35:09;;;;;;;19.48;7.90;;;13.40;99.90;;;;;;5113345;27;20460;-77
2022/05/10 04:37:34;;;;;;;19.55;9.18;;;13.40;99.90;;;;;;5114221;27;20116;-76
2022/05/10 04:42:45;;;;;;;37.35;19.65;;;13.50;99.90;;;;;;5114895;27;20073;-76
2022/05/10 04:45:12;;;;;;;27.50;13.70;;;13.60;99.90;;;;;;5114629;27;20031;-76
2022/05/10 04:47:38;;;;;;;18.30;9.70;;;13.60;99.90;;;;;;5114446;27;20112;-76
2022/05/10 04:50:03;;;;;;;42.30;24.55;;;13.70;99.90;;;;;;5114645;27;20120;-76
2022/05/10 04:52:29;;;;;;;16.52;8.32;;;13.70;99.90;;;;;;5132188;27;20054;-76
2022/05/10 04:54:54;;;;;;;17.58;9.20;;;13.80;99.90;;;;;;5114939;27;20043;-76
2022/05/10 04:57:21;;;;;;;14.57;7.40;;;13.80;99.90;;;;;;5114670;28;20043;-76
2022/05/10 04:59:47;;;;;;;22.23;9.55;;;13.90;99.90;;;;;;5114602;27;20081;-76
2022/05/10 05:02:13;;;;;;;15.05;8.50;;;13.90;99.90;;;;;;5115005;28;20137;-76
2022/05/10 05:04:39;;;;;;;16.23;8.70;;;14.00;99.90;;;;;;5115067;27;20035;-76
2022/05/10 05:07:04;;;;;;;15.52;8.25;;;14.00;99.90;;;;;;5132800;27;20031;-77
2022/05/10 05:09:30;;;;;;;21.90;8.98;;;14.00;99.90;;;;;;5113136;28;20558;-77
2022/05/10 05:11:56;;;;;;;34.33;16.67;;;14.10;99.90;;;;;;5113528;28;20117;-77
2022/05/10 05:14:22;;;;;;;16.77;8.35;;;14.10;99.90;;;;;;5113720;27;20046;-77
2022/05/10 05:16:48;;;;;;;14.15;8.05;;;14.20;99.90;;;;;;5113360;28;20525;-77
2022/05/10 05:19:14;;;;;;;19.60;8.93;;;14.30;99.90;;;;;;5113203;28;20043;-77
2022/05/10 05:21:39;;;;;;;14.98;8.60;;;14.30;99.90;;;;;;5113055;28;20043;-77
2022/05/10 05:24:05;;;;;;;17.70;9.15;;;14.40;99.90;;;;;;5113416;28;20039;-77
2022/05/10 05:26:31;;;;;;;31.33;13.70;;;14.50;99.90;;;;;;5113296;28;20035;-77
2022/05/10 05:28:56;;;;;;;19.63;9.27;;;14.50;99.90;;;;;;5113216;28;20050;-76
2022/05/10 05:31:24;;;;;;;18.73;9.25;;;14.60;99.90;;;;;;5113210;28;20100;-77
2022/05/10 05:33:50;;;;;;;19.40;10.57;;;14.70;99.90;;;;;;5113526;28;20126;-77
2022/05/10 05:36:16;;;;;;;16.00;8.63;;;14.80;99.90;;;;;;5113209;28;20122;-77
2022/05/10 05:38:41;;;;;;;15.27;9.43;;;14.80;99.90;;;;;;5113129;28;20050;-77
2022/05/10 05:41:07;;;;;;;14.65;8.27;;;14.90;99.90;;;;;;5112912;28;20039;-78
2022/05/10 05:43:34;;;;;;;18.45;8.98;;;15.00;99.90;;;;;;5113517;28;20127;-77
2022/05/10 05:46:01;;;;;;;22.33;10.70;;;15.10;99.90;;;;;;5113578;27;20043;-79
2022/05/10 05:48:27;;;;;;;16.83;8.85;;;15.20;99.90;;;;;;5117890;27;20163;-78
2022/05/10 05:50:53;;;;;;;19.08;8.77;;;15.30;99.90;;;;;;5100133;27;20501;-78
2022/05/10 05:53:18;;;;;;;17.67;10.27;;;15.40;99.90;;;;;;5117153;27;20039;-78
2022/05/10 05:55:47;;;;;;;18.65;8.65;;;15.40;99.90;;;;;;5134229;27;20053;-78
2022/05/10 05:58:13;;;;;;;18.23;8.82;;;15.50;99.90;;;;;;5116994;27;20070;-78
2022/05/10 06:00:38;;;;;;;14.57;8.43;;;15.60;99.90;;;;;;5116773;27;20482;-78
2022/05/10 06:03:05;;;;;;;15.02;8.52;;;15.70;99.90;;;;;;5117180;27;20039;-78
2022/05/10 06:05:31;;;;;;;17.10;8.88;;;15.80;99.90;;;;;;5116976;27;20043;-78
2022/05/10 06:07:58;;;;;;;16.45;8.57;;;15.90;99.90;;;;;;5117082;27;20043;-78
2022/05/10 06:10:24;;;;;;;17.95;8.75;;;16.00;99.90;;;;;;5116495;27;20046;-78
2022/05/10 06:12:50;;;;;;;15.52;8.43;;;16.10;99.90;;;;;;5135283;27;20508;-78
2022/05/10 06:15:18;;;;;;;14.73;9.15;;;16.20;99.90;;;;;;5117041;27;20047;-78
2022/05/10 06:17:46;;;;;;;16.95;8.48;;;16.40;99.90;;;;;;5116636;27;20043;-78
2022/05/10 06:20:16;;;;;;;14.13;8.25;;;16.50;99.90;;;;;;5116656;27;20043;-78
2022/05/10 06:22:44;;;;;;;16.08;8.88;;;16.70;99.90;;;;;;5116838;27;20414;-78
2022/05/10 06:25:11;;;;;;;21.88;9.13;;;16.80;99.90;;;;;;5116673;27;20054;-78
2022/05/10 06:27:37;;;;;;;17.20;8.88;;;17.00;99.90;;;;;;5116860;27;20050;-78
2022/05/10 06:30:03;;;;;;;17.20;8.60;;;17.30;99.90;;;;;;5116230;27;20043;-78
2022/05/10 06:32:31;;;;;;;13.82;8.35;;;17.50;99.90;;;;;;5116433;27;20047;-78
2022/05/10 06:34:58;;;;;;;20.70;8.35;;;17.70;99.90;;;;;;5116646;27;20050;-78
2022/05/10 06:40:14;;;;;;;13.70;8.10;;;17.90;99.90;;;;;;5116057;27;20176;-78
2022/05/10 06:42:40;;;;;;;16.13;8.10;;;17.90;99.90;;;;;;5116624;27;20504;-78
2022/05/10 06:45:10;;;;;;;15.05;7.72;;;18.00;99.90;;;;;;5116912;27;20078;-79
2022/05/10 06:47:38;;;;;;;13.93;7.78;;;18.00;99.90;;;;;;5116718;27;20386;-79
2022/05/10 06:50:05;;;;;;;14.23;7.95;;;18.00;99.90;;;;;;5116103;27;20494;-79
2022/05/10 06:52:30;;;;;;;13.35;8.15;;;18.10;99.90;;;;;;5099364;27;20084;-79
2022/05/10 06:54:57;;;;;;;12.55;7.65;;;18.30;99.90;;;;;;5134639;27;20103;-80
2022/05/10 06:57:22;;;;;;;12.27;7.53;;;18.50;99.90;;;;;;5115706;27;20062;-81
2022/05/10 06:59:48;;;;;;;17.65;9.45;;;18.80;99.90;;;;;;5115581;27;20482;-80
2022/05/10 07:02:13;;;;;;;14.27;8.55;;;19.00;99.90;;;;;;5116190;27;20031;-80
2022/05/10 07:04:39;;;;;;;14.77;9.07;;;19.40;99.90;;;;;;5115958;27;20114;-81
2022/05/10 07:07:05;;;;;;;16.80;8.45;;;19.70;99.90;;;;;;5116117;27;20074;-81
2022/05/10 07:09:30;;;;;;;16.35;9.30;;;20.10;99.90;;;;;;5115493;27;20051;-81
2022/05/10 07:11:56;;;;;;;17.30;9.38;;;20.60;99.90;;;;;;5116222;27;20648;-80
2022/05/10 07:14:21;;;;;;;15.68;8.75;;;21.00;99.90;;;;;;5116310;27;20043;-80
2022/05/10 07:16:47;;;;;;;12.05;8.57;;;21.40;99.90;;;;;;5115780;27;20042;-81
2022/05/10 07:19:12;;;;;;;18.63;8.43;;;21.60;99.90;;;;;;5098707;27;20390;-80
2022/05/10 07:21:38;;;;;;;15.20;8.38;;;21.70;99.90;;;;;;5115401;27;20489;-80
2022/05/10 07:24:04;;;;;;;14.25;7.53;;;21.90;99.90;;;;;;5115725;27;20398;-80
2022/05/10 07:26:29;;;;;;;12.90;7.68;;;22.00;99.90;;;;;;5115694;27;20031;-79
2022/05/10 07:28:55;;;;;;;12.02;7.47;;;22.10;99.90;;;;;;5134875;27;20501;-79
2022/05/10 07:31:20;;;;;;;11.90;8.63;;;22.30;99.90;;;;;;5115151;27;20050;-80
2022/05/10 07:33:46;;;;;;;13.30;9.07;;;22.50;99.90;;;;;;5115458;27;20079;-81
2022/05/10 07:36:28;;;;;;;16.15;7.82;;;22.70;99.90;;;;;;5115933;27;20174;-80
2022/05/10 07:38:54;;;;;;;16.98;8.27;;;22.80;99.90;;;;;;5116439;27;20566;-80
2022/05/10 07:41:23;;;;;;;12.02;7.65;;;23.00;99.70;;;;;;5115656;27;20043;-80
2022/05/10 07:43:50;;;;;;;13.98;7.05;;;23.00;98.70;;;;;;5116763;27;20081;-81
2022/05/10 07:46:16;;;;;;;13.90;7.70;;;23.10;96.90;;;;;;5115447;27;20039;-80
2022/05/10 07:48:43;;;;;;;12.98;7.53;;;23.20;94.60;;;;;;5115810;27;20435;-81
2022/05/10 07:51:08;;;;;;;14.07;7.20;;;23.40;96.10;;;;;;5133872;27;20092;-81
2022/05/10 07:53:35;;;;;;;13.98;7.47;;;23.60;95.20;;;;;;5115580;27;20047;-80
2022/05/10 07:56:02;;;;;;;16.17;6.95;;;23.70;95.20;;;;;;5114488;27;20117;-77
2022/05/10 07:58:29;;;;;;;14.40;6.88;;;23.90;94.10;;;;;;5114839;27;20149;-77
2022/05/10 08:00:55;;;;;;;11.75;6.57;;;24.10;91.90;;;;;;5114479;27;20424;-78
2022/05/10 08:03:23;;;;;;;13.10;6.60;;;24.30;91.20;;;;;;5097822;27;20046;-77
2022/05/10 08:05:49;;;;;;;13.63;6.00;;;24.40;89.10;;;;;;5116610;27;20043;-77
2022/05/10 08:08:17;;;;;;;11.88;6.43;;;24.30;86.80;;;;;;5130965;27;20051;-77
2022/05/10 08:10:44;;;;;;;10.73;5.95;;;24.20;84.10;;;;;;5147380;27;20111;-77
2022/05/10 08:13:15;;;;;;;12.85;6.72;;;23.90;81.80;;;;;;5117510;27;20043;-78
2022/05/10 08:15:41;;;;;;;14.90;5.90;;;23.60;80.00;;;;;;5114875;27;20389;-77
2022/05/10 08:18:07;;;;;;;11.07;6.18;;;23.30;82.90;;;;;;5114165;27;20047;-78
2022/05/10 08:20:34;;;;;;;15.02;6.35;;;23.10;82.90;;;;;;5114224;27;20096;-78
2022/05/10 08:22:59;;;;;;;15.52;6.57;;;23.00;84.20;;;;;;5114574;27;20051;-79
2022/05/10 08:25:25;;;;;;;12.73;6.68;;;22.80;83.70;;;;;;5113023;27;20524;-77
2022/05/10 08:27:51;;;;;;;13.15;6.50;;;22.50;85.10;;;;;;5112590;27;20047;-78
2022/05/10 08:30:17;;;;;;;13.95;5.90;;;22.30;85.30;;;;;;5112539;27;20054;-78
2022/05/10 08:32:43;;;;;;;10.02;6.07;;;22.10;85.70;;;;;;5112384;27;20062;-78
2022/05/10 08:35:09;;;;;;;12.38;6.57;;;22.00;88.10;;;;;;5096213;27;20035;-78
2022/05/10 08:37:37;;;;;;;14.73;6.72;;;21.80;90.00;;;;;;5114243;27;20039;-79
2022/05/10 08:40:05;;;;;;;10.13;6.57;;;21.70;90.60;;;;;;5114273;27;20047;-78
2022/05/10 08:42:33;;;;;;;12.52;6.38;;;21.60;90.20;;;;;;5097026;27;20050;-79
2022/05/10 08:45:07;;;;;;;11.27;6.00;;;21.60;90.80;;;;;;5114329;27;20118;-79
2022/05/10 08:47:35;;;;;;;10.88;6.18;;;21.60;92.00;;;;;;5114092;27;20402;-79
2022/05/10 08:50:05;;;;;;;11.68;7.03;;;21.70;92.00;;;;;;5096527;27;20031;-79
2022/05/10 08:52:34;;;;;;;15.98;7.65;;;21.80;92.60;;;;;;5096830;27;20054;-77
2022/05/10 08:55:01;;;;;;;10.73;7.07;;;21.80;92.80;;;;;;5113985;27;20075;-77
2022/05/10 08:57:51;;;;;;;12.02;7.88;;;21.80;93.20;;;;;;5113691;27;20061;-78
2022/05/10 09:00:48;;;;;;;14.23;7.78;;;21.90;94.40;;;;;;5113351;27;20092;-76
2022/05/10 09:03:22;;;;;;;12.32;7.30;;;21.70;94.60;;;;;;5096958;28;20047;-77
2022/05/10 09:05:50;;;;;;;12.25;8.20;;;21.70;95.20;;;;;;5113817;27;20061;-77
2022/05/10 09:08:38;;;;;;;12.98;8.32;;;21.70;95.90;;;;;;5113785;27;20107;-77
2022/05/10 09:11:07;;;;;;;14.90;8.63;;;21.80;96.60;;;;;;5096537;27;20043;-78
2022/05/10 09:13:33;;;;;;;12.73;8.93;;;21.80;96.50;;;;;;5113801;27;20043;-77
2022/05/10 09:16:01;;;;;;;15.05;8.02;;;21.80;97.10;;;;;;5113658;28;20043;-78
2022/05/10 09:18:39;;;;;;;10.98;7.45;;;21.80;97.20;;;;;;5132042;28;20114;-78
2022/05/10 09:21:19;;;;;;;11.40;7.68;;;21.80;97.00;;;;;;5112686;28;20031;-77
2022/05/10 09:24:21;;;;;;;11.13;7.53;;;21.80;98.00;;;;;;5113520;28;20050;-77
2022/05/10 09:26:50;;;;;;;13.95;7.30;;;21.80;97.00;;;;;;5115987;28;20500;-79
2022/05/10 09:29:34;;;;;;;9.68;6.30;;;21.80;97.50;;;;;;5116362;28;20046;-81
2022/05/10 09:35:14;;;;;;;10.57;6.82;;;22.00;97.30;;;;;;5116262;28;20103;-79
2022/05/10 09:37:43;;;;;;;10.25;7.70;;;22.20;98.30;;;;;;5116377;28;20051;-80
2022/05/10 09:40:17;;;;;;;12.23;7.82;;;22.50;97.70;;;;;;5116275;28;20120;-80
2022/05/10 09:42:49;;;;;;;10.13;6.93;;;22.80;96.90;;;;;;5117470;28;20039;-81
2022/05/10 09:45:26;;;;;;;12.73;8.05;;;23.10;95.90;;;;;;5117740;28;20066;-81
2022/05/10 09:48:17;;;;;;;14.40;7.35;;;23.30;94.70;;;;;;5117656;28;20285;-80
2022/05/10 09:50:49;;;;;;;12.30;7.60;;;23.50;94.60;;;;;;5118544;28;20504;-80
2022/05/10 09:53:25;;;;;;;13.93;8.05;;;23.50;94.40;;;;;;5135898;28;20031;-80
2022/05/10 09:56:28;;;;;;;10.57;7.43;;;23.60;93.40;;;;;;5099893;28;20126;-80
2022/05/10 09:59:11;;;;;;;12.45;7.63;;;23.60;93.00;;;;;;5113103;28;20051;-81
2022/05/10 10:01:43;;;;;;;14.50;7.07;;;23.60;93.40;;;;;;5099282;28;20046;-78
2022/05/10 10:04:25;;;;;;;14.43;8.18;;;23.50;93.50;;;;;;5117424;28;20035;-78
2022/05/10 10:07:18;;;;;;;14.60;7.95;;;23.50;93.30;;;;;;5116615;28;20043;-80
2022/05/10 10:09:47;;;;;;;16.48;8.07;;;23.40;92.40;;;;;;5117238;28;20047;-81
2022/05/10 10:12:32;;;;;;;9.65;7.30;;;23.50;93.90;;;;;;5117647;28;20051;-79
2022/05/10 10:14:58;;;;;;;12.80;7.95;;;23.50;94.00;;;;;;5117618;28;20541;-80
2022/05/10 10:17:28;;;;;;;12.52;7.57;;;23.60;93.50;;;;;;5117771;28;20513;-81
2022/05/10 10:20:21;;;;;;;11.10;6.90;;;23.60;93.00;;;;;;5118319;28;20043;-79
2022/05/10 10:22:52;;;;;;;10.20;7.22;;;23.70;93.60;;;;;;5100398;28;20035;-79
2022/05/10 10:25:27;;;;;;;11.15;6.63;;;23.70;93.60;;;;;;5117314;28;20087;-80
2022/05/10 10:28:21;;;;;;;15.93;6.93;;;23.80;93.70;;;;;;5115697;28;20096;-81
2022/05/10 10:30:54;;;;;;;12.65;6.68;;;23.80;92.60;;;;;;5115825;28;20050;-81
2022/05/10 10:33:34;;;;;;;8.43;6.25;;;23.90;92.30;;;;;;5116043;27;20078;-80
2022/05/10 10:36:18;;;;;;;10.27;7.00;;;24.00;92.40;;;;;;5117503;27;20069;-78
2022/05/10 10:38:55;;;;;;;9.73;6.85;;;24.20;91.70;;;;;;5118369;27;20454;-77
2022/05/10 10:41:35;;;;;;;9.38;6.85;;;24.20;91.20;;;;;;5118974;27;20112;-81
2022/05/10 10:44:14;;;;;;;8.60;6.05;;;24.30;87.70;;;;;;5119845;27;20043;-79
2022/05/10 10:47:04;;;;;;;10.60;7.30;;;24.40;90.30;;;;;;5121737;27;20139;-80
2022/05/10 10:49:38;;;;;;;9.75;6.78;;;24.40;89.70;;;;;;5102803;27;20078;-80
2022/05/10 10:52:04;;;;;;;8.07;6.13;;;24.50;88.80;;;;;;5119117;27;20051;-81
2022/05/10 10:54:31;;;;;;;16.95;6.32;;;24.50;87.80;;;;;;5103726;27;20051;-80
2022/05/10 10:57:21;;;;;;;14.02;5.95;;;24.70;88.60;;;;;;5102997;27;20031;-81
2022/05/10 11:00:04;;;;;;;7.40;5.85;;;24.80;88.10;;;;;;5100594;27;20077;-80
2022/05/10 11:03:00;;;;;;;12.00;5.50;;;24.80;88.60;;;;;;5117782;27;20073;-82
2022/05/10 11:05:50;;;;;;;12.18;5.18;;;24.80;87.60;;;;;;5101105;27;20031;-80
2022/05/10 11:08:45;;;;;;;8.38;5.55;;;24.70;87.60;;;;;;5117864;27;20042;-81
2022/05/10 11:11:38;;;;;;;10.38;5.15;;;24.70;87.40;;;;;;5101838;27;20051;-81
2022/05/10 11:14:20;;;;;;;8.85;5.13;;;24.70;84.50;;;;;;5119636;27;20210;-80
2022/05/10 11:17:13;;;;;;;6.60;4.43;;;24.60;81.80;;;;;;5102269;27;20504;-81
2022/05/10 11:20:13;;;;;;;9.57;4.47;;;24.50;80.60;;;;;;5118942;27;20080;-81
2022/05/10 11:23:06;;;;;;;6.70;4.00;;;24.30;79.70;;;;;;5119124;27;20114;-81
2022/05/10 11:25:58;;;;;;;7.55;3.97;;;24.10;80.40;;;;;;5120137;27;20064;-80
2022/05/10 11:28:48;;;;;;;8.60;4.03;;;24.00;78.00;;;;;;5120272;27;20035;-80
2022/05/10 11:31:41;;;;;;;11.13;4.50;;;23.80;79.90;;;;;;5103076;27;20039;-79
2022/05/10 11:34:20;;;;;;;10.88;5.10;;;23.90;80.40;;;;;;5118857;27;20074;-80
2022/05/10 11:36:51;;;;;;;7.63;4.95;;;23.90;78.60;;;;;;5118428;27;20043;-80
2022/05/10 11:39:22;;;;;;;9.60;5.97;;;23.90;79.80;;;;;;5118801;27;20520;-80
2022/05/10 11:42:15;;;;;;;8.85;4.82;;;24.00;80.20;;;;;;5118858;27;20054;-81
2022/05/10 11:45:20;;;;;;;7.07;4.55;;;24.00;79.80;;;;;;5118500;27;20039;-80
2022/05/10 11:48:24;;;;;;;14.50;4.53;;;24.10;84.80;;;;;;5122375;27;20391;-81
2022/05/10 11:51:43;;;;;;;8.93;3.97;;;24.20;75.90;;;;;;5104407;27;20110;-81
2022/05/10 11:54:33;;;;;;;7.18;4.30;;;24.40;76.90;;;;;;5120606;27;20551;-79
2022/05/10 11:57:00;;;;;;;7.65;4.70;;;24.70;75.40;;;;;;5099326;27;20046;-79
2022/05/10 11:59:32;;;;;;;10.25;4.38;;;24.90;74.10;;;;;;5116589;27;20130;-80
2022/05/10 12:01:58;;;;;;;;;;;25.20;74.10;;;;;;5101082;27;20375;-82
2022/05/10 12:04:32;;;;;;;7.68;3.85;;;25.40;71.00;;;;;;5120312;27;19926;-82
2022/05/10 12:07:22;;;;;;;9.75;3.78;;;25.40;71.50;;;;;;5121859;27;20039;-80
2022/05/10 12:10:23;;;;;;;7.85;4.18;;;25.50;69.20;;;;;;5117669;27;20501;-79
2022/05/10 12:12:52;;;;;;;7.68;4.80;;;25.40;65.60;;;;;;5134331;27;20566;-78
2022/05/10 12:21:21;;;;;;;13.27;5.22;;;25.20;67.50;;;;;;5117033;27;20043;-81
2022/05/10 12:24:11;;;;;;;9.73;4.63;;;25.00;65.40;;;;;;5120167;27;20035;-83
2022/05/10 12:26:55;;;;;;;9.32;4.10;;;25.10;68.90;;;;;;5102157;27;20043;-80
2022/05/10 12:29:39;;;;;;;12.93;5.03;;;25.30;68.90;;;;;;5117566;27;20043;-78
2022/05/10 12:32:29;;;;;;;7.38;4.43;;;25.30;65.60;;;;;;5123772;27;20481;-81
2022/05/10 12:35:00;;;;;;;8.93;4.68;;;25.20;66.20;;;;;;5129448;27;20059;-79
2022/05/10 12:37:26;;;;;;;9.43;4.43;;;25.20;67.50;;;;;;5128740;27;20043;-79
2022/05/10 12:39:56;;;;;;;6.82;4.35;;;25.10;67.50;;;;;;5123686;27;20058;-80
2022/05/10 12:42:38;;;;;;;9.07;4.60;;;25.10;67.50;;;;;;5100837;27;20490;-79
2022/05/10 12:45:34;;;;;;;15.50;4.72;;;25.10;67.90;;;;;;5116197;27;20154;-78
2022/05/10 12:48:29;;;;;;;11.82;4.00;;;25.40;69.20;;;;;;5115218;27;20080;-79
2022/05/10 12:50:59;;;;;;;8.05;4.30;;;25.50;68.20;;;;;;5117951;27;20039;-80
2022/05/10 12:53:47;;;;;;;10.85;3.80;;;25.70;67.40;;;;;;5115496;27;20080;-77
2022/05/10 12:56:19;;;;;;;11.80;4.10;;;25.70;64.10;;;;;;5113410;27;20404;-78
2022/05/10 12:58:49;;;;;;;10.23;3.47;;;25.70;65.00;;;;;;5097333;27;20043;-78
2022/05/10 13:01:17;;;;;;;9.85;4.40;;;25.70;63.30;;;;;;5116462;27;20067;-79
2022/05/10 13:03:51;;;;;;;7.32;4.32;;;25.40;63.20;;;;;;5116489;27;20093;-81
2022/05/10 13:06:50;;;;;;;15.38;4.38;;;25.30;63.80;;;;;;5098698;27;20050;-81
2022/05/10 13:09:29;;;;;;;6.97;3.63;;;25.10;63.10;;;;;;5097467;27;20050;-83
2022/05/10 13:12:18;;;;;;;9.77;4.55;;;24.90;65.50;;;;;;5114824;27;20051;-81
2022/05/10 13:14:53;;;;;;;8.35;4.40;;;24.80;65.30;;;;;;5113954;27;20085;-82
2022/05/10 13:17:26;;;;;;;7.35;3.67;;;24.70;67.70;;;;;;5115620;27;20043;-80
2022/05/10 13:19:52;;;;;;;8.45;4.05;;;24.60;68.30;;;;;;5096976;28;20509;-81
2022/05/10 13:22:18;;;;;;;6.53;3.50;;;24.50;67.80;;;;;;5097131;28;20076;-81
2022/05/10 13:24:50;;;;;;;6.50;3.20;;;24.50;68.40;;;;;;5115641;28;20043;-81
2022/05/10 13:27:31;;;;;;;11.70;3.60;;;24.40;69.60;;;;;;5115640;28;20165;-80